Time;durP1;ratioP1;P1;durP2;ratioP2;P2;SDS_P1;SDS_P2;PMS_P1;PMS_P2;Temp;Humidity;BMP_temperature;BMP_pressure;BME280_temperature;BME280_humidity;BME280_pressure;Samples;Min_cycle;Max_cycle;Signal;HPM_P1;HPM_P2
2022/10/15 00:00:26;;;;;;;32.58;17.23;;;;;;;10.20;100.00;100651.19;5093350;28;20104;-75
2022/10/15 00:02:52;;;;;;;27.95;17.48;;;;;;;10.20;100.00;100656.63;5086439;28;19922;-75
2022/10/15 00:05:17;;;;;;;30.48;17.35;;;;;;;10.19;100.00;100665.78;5088377;28;20027;-75
2022/10/15 00:07:43;;;;;;;31.90;17.58;;;;;;;10.17;100.00;100662.31;5092231;28;20035;-75
2022/10/15 00:10:08;;;;;;;31.23;16.88;;;;;;;10.15;100.00;100661.53;5074042;28;20487;-75
2022/10/15 00:12:34;;;;;;;26.48;15.02;;;;;;;10.16;100.00;100670.56;5090213;28;20127;-75
2022/10/15 00:15:00;;;;;;;37.03;16.85;;;;;;;10.16;100.00;100674.13;5090965;28;20036;-75
2022/10/15 00:17:25;;;;;;;27.63;15.25;;;;;;;10.16;100.00;100670.56;5090805;28;20089;-75
2022/10/15 00:19:50;;;;;;;26.25;15.00;;;;;;;10.18;100.00;100663.16;5092078;28;20066;-75
2022/10/15 00:22:16;;;;;;;22.35;14.80;;;;;;;10.15;100.00;100660.66;5091633;28;20036;-75
2022/10/15 00:24:41;;;;;;;27.73;14.73;;;;;;;10.19;100.00;100665.78;5092079;28;20028;-75
2022/10/15 00:27:06;;;;;;;26.70;15.07;;;;;;;10.20;100.00;100669.34;5091953;28;20035;-75
2022/10/15 00:29:32;;;;;;;24.50;14.02;;;;;;;10.20;100.00;100663.91;5090501;28;20024;-76
2022/10/15 00:31:57;;;;;;;24.70;14.50;;;;;;;10.22;100.00;100670.13;5091878;28;20110;-75
2022/10/15 00:34:23;;;;;;;39.10;17.10;;;;;;;10.26;100.00;100668.94;5090579;28;20472;-75
2022/10/15 00:36:49;;;;;;;26.30;14.88;;;;;;;10.27;100.00;100669.81;5090428;28;20174;-75
2022/10/15 00:39:15;;;;;;;31.63;16.17;;;;;;;10.28;100.00;100666.09;5073536;28;20039;-75
2022/10/15 00:41:42;;;;;;;32.92;16.70;;;;;;;10.33;100.00;100662.06;5091343;28;20476;-75
2022/10/15 00:44:20;;;;;;;30.60;17.63;;;;;;;10.39;100.00;100671.59;5091513;28;20084;-75
2022/10/15 00:46:52;;;;;;;36.47;18.55;;;;;;;10.41;100.00;100672.38;5090222;28;20040;-75
2022/10/15 00:49:22;;;;;;;31.48;17.42;;;;;;;10.45;100.00;100672.03;5090291;28;20032;-75
2022/10/15 00:51:53;;;;;;;39.67;19.45;;;;;;;10.53;100.00;100673.28;5091434;28;20039;-75
2022/10/15 00:54:19;;;;;;;36.33;18.63;;;;;;;10.55;100.00;100676.78;5073336;28;20115;-75
2022/10/15 00:56:47;;;;;;;37.17;19.83;;;;;;;10.59;100.00;100670.13;5090081;28;20023;-75
2022/10/15 00:59:13;;;;;;;38.28;19.48;;;;;;;10.61;100.00;100669.03;5089731;28;20122;-75
2022/10/15 01:01:38;;;;;;;33.65;19.45;;;;;;;10.60;100.00;100661.84;5090929;28;20630;-75
2022/10/15 01:04:06;;;;;;;41.10;20.83;;;;;;;10.67;100.00;100667.69;5105046;28;20035;-76
2022/10/15 01:06:32;;;;;;;44.80;23.00;;;;;;;10.73;100.00;100670.81;5092935;28;20142;-75
2022/10/15 01:08:58;;;;;;;41.53;21.70;;;;;;;10.76;100.00;100666.97;5100302;28;20048;-75
2022/10/15 01:11:43;;;;;;;52.90;24.00;;;;;;;10.78;100.00;100666.88;5073278;28;20115;-75
2022/10/15 01:14:18;;;;;;;41.03;20.48;;;;;;;10.78;100.00;100664.16;5095161;28;20027;-75
2022/10/15 01:16:54;;;;;;;47.20;23.10;;;;;;;10.80;100.00;100656.75;5102607;28;20040;-75
2022/10/15 01:19:41;;;;;;;45.80;21.88;;;;;;;10.88;100.00;100655.16;5090781;28;20507;-75
2022/10/15 01:22:16;;;;;;;49.60;24.42;;;;;;;10.94;100.00;100653.81;5090732;28;20186;-75
2022/10/15 01:24:58;;;;;;;45.97;23.00;;;;;;;10.98;100.00;100648.03;5089385;28;20111;-75
2022/10/15 01:27:29;;;;;;;48.35;23.48;;;;;;;11.03;100.00;100646.81;5090466;28;20040;-75
2022/10/15 01:30:28;;;;;;;45.63;25.17;;;;;;;11.09;100.00;100641.75;5089463;28;20479;-76
2022/10/15 01:33:11;;;;;;;41.67;22.73;;;;;;;11.11;100.00;100630.75;5097275;28;20051;-75
2022/10/15 01:35:51;;;;;;;41.85;23.40;;;;;;;11.12;100.00;100621.59;5089446;28;20028;-76
2022/10/15 01:38:28;;;;;;;47.58;24.63;;;;;;;11.18;100.00;100630.13;5088705;28;20403;-75
2022/10/15 01:40:59;;;;;;;45.45;24.45;;;;;;;11.22;100.00;100633.50;5071538;28;20134;-75
2022/10/15 01:43:36;;;;;;;42.30;25.13;;;;;;;11.24;100.00;100629.66;5072847;28;20049;-75
2022/10/15 01:46:28;;;;;;;48.70;26.70;;;;;;;11.32;100.00;100634.50;5106082;28;20074;-75
2022/10/15 01:49:04;;;;;;;43.92;24.52;;;;;;;11.35;100.00;100641.56;5088766;28;20397;-75
2022/10/15 01:51:34;;;;;;;46.72;26.35;;;;;;;11.39;100.00;100632.16;5090206;28;20036;-74
2022/10/15 01:54:01;;;;;;;51.25;25.60;;;;;;;11.42;100.00;100629.19;5072410;28;20036;-75
2022/10/15 01:56:27;;;;;;;47.55;25.15;;;;;;;11.46;100.00;100625.22;5088951;28;20108;-75
2022/10/15 01:58:55;;;;;;;52.47;27.65;;;;;;;11.46;100.00;100626.09;5088477;28;20040;-76
2022/10/15 02:01:21;;;;;;;50.92;26.67;;;;;;;11.51;100.00;100625.72;5088249;28;20046;-75
2022/10/15 02:03:51;;;;;;;47.33;26.35;;;;;;;11.52;100.00;100619.31;5088809;28;20131;-76
2022/10/15 02:06:32;;;;;;;43.92;25.30;;;;;;;11.54;100.00;100624.63;5088565;28;20440;-75
2022/10/15 02:09:32;;;;;;;48.25;24.40;;;;;;;11.57;100.00;100621.66;5088733;28;20117;-76
2022/10/15 02:12:08;;;;;;;43.40;24.67;;;;;;;11.58;100.00;100618.81;5088456;28;20036;-75
2022/10/15 02:14:46;;;;;;;41.88;24.23;;;;;;;11.57;100.00;100606.19;5097928;28;20483;-75
2022/10/15 02:17:14;;;;;;;44.78;24.45;;;;;;;11.57;100.00;100611.63;5084189;28;20388;-76
2022/10/15 02:19:55;;;;;;;38.65;23.35;;;;;;;11.60;100.00;100610.50;5109168;28;20064;-75
2022/10/15 02:22:30;;;;;;;44.35;23.85;;;;;;;11.59;100.00;100608.78;5085587;28;20035;-75
2022/10/15 02:25:03;;;;;;;36.72;22.92;;;;;;;11.55;100.00;100605.41;5090312;28;20448;-75
2022/10/15 02:27:31;;;;;;;42.13;24.73;;;;;;;11.54;100.00;100609.13;5096585;28;20035;-76
2022/10/15 02:29:59;;;;;;;44.15;24.85;;;;;;;11.53;100.00;100596.50;5097696;28;20035;-75
2022/10/15 02:32:25;;;;;;;40.13;23.23;;;;;;;11.54;100.00;100598.25;5089227;28;20361;-75
2022/10/15 02:34:53;;;;;;;38.65;23.20;;;;;;;11.52;100.00;100599.34;5088148;28;20114;-75
2022/10/15 02:37:23;;;;;;;43.42;22.63;;;;;;;11.53;100.00;100590.22;5087855;28;20102;-75
2022/10/15 02:39:49;;;;;;;39.08;22.52;;;;;;;11.51;100.00;100584.84;5089574;28;20048;-75
2022/10/15 02:42:16;;;;;;;36.60;22.60;;;;;;;11.52;100.00;100583.00;5096406;28;20582;-75
2022/10/15 02:44:42;;;;;;;38.13;22.95;;;;;;;11.53;100.00;100579.31;5100669;28;20091;-75
2022/10/15 02:47:07;;;;;;;40.20;23.60;;;;;;;11.52;100.00;100572.09;5087460;28;20521;-75
2022/10/15 02:49:33;;;;;;;38.45;22.38;;;;;;;11.52;100.00;100573.00;5089277;28;20032;-74
2022/10/15 02:51:58;;;;;;;38.53;22.55;;;;;;;11.49;100.00;100571.38;5087981;28;20118;-75
2022/10/15 02:54:24;;;;;;;34.35;22.30;;;;;;;11.51;100.00;100565.78;5071072;28;20098;-75
2022/10/15 02:56:49;;;;;;;42.92;23.40;;;;;;;11.53;100.00;100560.22;5089149;28;20043;-76
2022/10/15 02:59:18;;;;;;;41.47;23.67;;;;;;;11.55;100.00;100564.56;5070727;28;20035;-75
2022/10/15 03:01:44;;;;;;;52.70;25.42;;;;;;;11.54;100.00;100561.97;5087339;28;20395;-75
2022/10/15 03:04:09;;;;;;;41.30;24.05;;;;;;;11.56;100.00;100562.69;5105605;28;20040;-76
2022/10/15 03:06:35;;;;;;;41.08;24.17;;;;;;;11.59;100.00;100551.56;5109256;28;20406;-76
2022/10/15 03:09:01;;;;;;;42.88;24.40;;;;;;;11.60;100.00;100556.00;5095336;28;20062;-75
2022/10/15 03:11:28;;;;;;;38.47;24.50;;;;;;;11.59;100.00;100557.00;5070906;28;20039;-76
2022/10/15 03:13:54;;;;;;;39.90;24.50;;;;;;;11.57;100.00;100557.13;5087487;28;20090;-76
2022/10/15 03:16:20;;;;;;;40.85;23.92;;;;;;;11.57;100.00;100548.09;5087097;28;20038;-76
2022/10/15 03:18:46;;;;;;;40.97;22.85;;;;;;;11.49;100.00;100535.97;5070853;28;20028;-75
2022/10/15 03:21:11;;;;;;;41.22;23.08;;;;;;;11.53;100.00;100554.78;5087090;28;20035;-76
2022/10/15 03:23:38;;;;;;;39.78;23.45;;;;;;;11.54;100.00;100562.81;5087153;28;20505;-75
2022/10/15 03:26:08;;;;;;;45.20;24.00;;;;;;;11.53;100.00;100552.06;5095939;28;20034;-75
2022/10/15 03:28:34;;;;;;;42.47;23.67;;;;;;;11.51;100.00;100563.06;5090534;28;20106;-75
2022/10/15 03:30:59;;;;;;;41.38;23.08;;;;;;;11.51;100.00;100552.16;5089406;28;20040;-75
2022/10/15 03:33:25;;;;;;;40.72;22.95;;;;;;;11.49;100.00;100552.31;5087435;28;20028;-76
2022/10/15 03:35:53;;;;;;;47.85;23.55;;;;;;;11.51;100.00;100554.88;5070593;28;20038;-75
2022/10/15 03:38:19;;;;;;;44.80;24.63;;;;;;;11.56;100.00;100559.97;5087031;28;20473;-75
2022/10/15 03:40:45;;;;;;;43.05;23.85;;;;;;;11.55;100.00;100555.50;5071231;28;20337;-75
2022/10/15 03:43:33;;;;;;;37.33;22.65;;;;;;;11.57;100.00;100550.81;5091187;28;20123;-75
2022/10/15 03:46:02;;;;;;;40.53;22.80;;;;;;;11.60;100.00;100550.56;5074751;28;20085;-75
2022/10/15 03:48:28;;;;;;;44.10;24.33;;;;;;;11.62;100.00;100540.41;5092152;28;20506;-75
2022/10/15 03:50:53;;;;;;;41.35;23.58;;;;;;;11.64;100.00;100541.13;5090937;28;20028;-75
2022/10/15 03:53:19;;;;;;;39.75;23.38;;;;;;;11.66;100.00;100541.91;5107420;28;20098;-76
2022/10/15 03:55:44;;;;;;;42.70;23.95;;;;;;;11.64;100.00;100531.09;5108094;28;20023;-75
2022/10/15 03:58:10;;;;;;;47.50;24.90;;;;;;;11.63;100.00;100532.09;5107844;28;20034;-75
2022/10/15 04:00:41;;;;;;;41.72;22.60;;;;;;;11.63;100.00;100534.84;5090958;28;20040;-75
2022/10/15 04:03:08;;;;;;;40.75;22.42;;;;;;;11.60;100.00;100532.34;5080048;28;20043;-75
2022/10/15 04:05:35;;;;;;;44.38;24.20;;;;;;;11.63;100.00;100539.41;5074170;28;20048;-75
2022/10/15 04:08:04;;;;;;;43.28;21.90;;;;;;;11.62;100.00;100538.56;5090147;28;20054;-75
2022/10/15 04:10:33;;;;;;;42.65;22.27;;;;;;;11.64;100.00;100542.00;5092369;28;20074;-75
2022/10/15 04:12:58;;;;;;;48.90;23.45;;;;;;;11.64;100.00;100542.00;5111426;28;20051;-75
2022/10/15 04:15:26;;;;;;;44.80;22.85;;;;;;;11.62;100.00;100545.88;5102213;28;20425;-75
2022/10/15 04:17:55;;;;;;;43.90;23.17;;;;;;;11.65;100.00;100545.59;5101979;28;20622;-76
2022/10/15 04:20:22;;;;;;;45.53;22.45;;;;;;;11.69;100.00;100547.06;5097143;28;20085;-76
2022/10/15 04:22:48;;;;;;;47.10;23.13;;;;;;;11.72;100.00;100538.66;5090917;28;20368;-76
2022/10/15 04:25:14;;;;;;;46.60;23.20;;;;;;;11.77;100.00;100555.50;5073489;28;20111;-76
2022/10/15 04:27:41;;;;;;;51.65;23.98;;;;;;;11.80;100.00;100557.97;5090369;28;20059;-75
2022/10/15 04:30:10;;;;;;;58.97;24.02;;;;;;;11.83;100.00;100557.75;5101843;28;20058;-76
2022/10/15 04:32:39;;;;;;;54.80;24.00;;;;;;;11.89;100.00;100568.16;5080645;28;20451;-76
2022/10/15 04:35:05;;;;;;;59.20;25.27;;;;;;;11.90;100.00;100553.53;5090549;28;20028;-76
2022/10/15 04:37:58;;;;;;;54.90;26.13;;;;;;;11.94;100.00;100546.84;5108070;28;20054;-75
2022/10/15 04:40:24;;;;;;;54.58;25.95;;;;;;;11.99;100.00;100554.63;5094633;28;20178;-76
2022/10/15 04:42:49;;;;;;;58.05;24.90;;;;;;;12.01;100.00;100536.28;5091359;28;20537;-76
2022/10/15 04:45:15;;;;;;;55.47;25.05;;;;;;;12.04;100.00;100546.94;5073395;28;20032;-76
2022/10/15 04:47:41;;;;;;;61.40;25.13;;;;;;;12.08;100.00;100536.66;5090110;28;20028;-75
2022/10/15 04:50:10;;;;;;;57.30;24.95;;;;;;;12.08;100.00;100542.97;5090122;28;20372;-76
2022/10/15 04:52:53;;;;;;;57.78;24.27;;;;;;;12.11;100.00;100545.41;5090196;28;20062;-76
2022/10/15 04:55:20;;;;;;;57.20;23.80;;;;;;;12.12;100.00;100535.38;5090145;28;20037;-76
2022/10/15 04:57:46;;;;;;;52.03;25.02;;;;;;;12.13;100.00;100527.06;5091102;28;20031;-76
2022/10/15 05:00:12;;;;;;;54.78;23.67;;;;;;;12.16;100.00;100537.72;5089993;28;20126;-77
2022/10/15 05:03:07;;;;;;;52.10;24.58;;;;;;;12.17;100.00;100544.91;5094833;28;20122;-76
2022/10/15 05:05:47;;;;;;;55.33;23.48;;;;;;;12.18;100.00;100537.59;5110417;28;20081;-75
2022/10/15 05:08:12;;;;;;;48.83;23.65;;;;;;;12.20;100.00;100538.31;5093120;28;20055;-75
2022/10/15 05:11:01;;;;;;;54.35;23.05;;;;;;;12.21;100.00;100543.63;5107339;28;20457;-77
2022/10/15 05:13:27;;;;;;;52.65;23.05;;;;;;;12.24;100.00;100539.81;5090143;28;20120;-76
2022/10/15 05:15:53;;;;;;;52.35;22.75;;;;;;;12.23;100.00;100538.06;5072849;28;20467;-75
2022/10/15 05:18:22;;;;;;;45.35;21.77;;;;;;;12.24;100.00;100553.44;5089489;28;20497;-75
2022/10/15 05:20:50;;;;;;;48.22;22.55;;;;;;;12.25;100.00;100549.72;5073006;28;20036;-76
2022/10/15 05:23:17;;;;;;;48.85;21.98;;;;;;;12.26;100.00;100545.97;5089326;28;20047;-74
2022/10/15 05:25:51;;;;;;;47.63;21.90;;;;;;;12.27;100.00;100541.41;5089257;28;20500;-76
2022/10/15 05:28:20;;;;;;;45.67;21.67;;;;;;;12.25;100.00;100544.25;5089378;28;20035;-76
2022/10/15 05:30:45;;;;;;;42.28;20.70;;;;;;;12.24;100.00;100545.25;5102363;28;20104;-75
2022/10/15 05:33:11;;;;;;;40.33;19.88;;;;;;;12.25;100.00;100546.97;5105220;28;20132;-75
2022/10/15 05:35:36;;;;;;;42.47;21.35;;;;;;;12.22;100.00;100548.13;5109506;28;20104;-75
2022/10/15 05:38:03;;;;;;;44.85;21.30;;;;;;;12.21;100.00;100542.78;5090391;28;20028;-76
2022/10/15 05:40:29;;;;;;;50.70;21.27;;;;;;;12.23;100.00;100554.44;5089367;28;20066;-75
2022/10/15 05:43:03;;;;;;;41.80;21.20;;;;;;;12.22;100.00;100550.00;5073160;28;20036;-76
2022/10/15 05:45:29;;;;;;;41.83;19.85;;;;;;;12.21;100.00;100545.50;5103344;28;20173;-75
2022/10/15 05:48:00;;;;;;;43.13;20.70;;;;;;;12.23;100.00;100544.41;5097428;28;20394;-75
2022/10/15 05:50:26;;;;;;;44.28;21.40;;;;;;;12.23;100.00;100541.66;5098324;28;20027;-75
2022/10/15 05:52:54;;;;;;;46.00;21.42;;;;;;;12.25;100.00;100541.53;5088268;28;20535;-76
2022/10/15 05:55:26;;;;;;;42.40;21.48;;;;;;;12.25;100.00;100534.22;5082363;28;20172;-76
2022/10/15 05:57:51;;;;;;;45.22;21.50;;;;;;;12.26;100.00;100540.53;5089904;28;20523;-75
2022/10/15 06:00:17;;;;;;;43.50;21.95;;;;;;;12.27;100.00;100541.41;5071609;28;20028;-77
2022/10/15 06:02:50;;;;;;;38.85;20.27;;;;;;;12.24;100.00;100545.25;5088147;28;20419;-76
2022/10/15 06:05:16;;;;;;;44.42;19.85;;;;;;;12.29;100.00;100544.88;5097799;28;20405;-75
2022/10/15 06:07:41;;;;;;;39.85;20.80;;;;;;;12.29;100.00;100548.47;5089812;28;20024;-75
2022/10/15 06:10:07;;;;;;;44.55;21.10;;;;;;;12.28;100.00;100554.06;5089737;28;20044;-75
2022/10/15 06:12:32;;;;;;;43.35;20.60;;;;;;;12.29;100.00;100545.72;5089275;28;20043;-75
2022/10/15 06:14:58;;;;;;;49.28;21.60;;;;;;;12.29;100.00;100537.56;5099515;28;20046;-75
2022/10/15 06:17:23;;;;;;;45.92;20.70;;;;;;;12.31;100.00;100542.88;5099144;28;20443;-75
2022/10/15 06:19:49;;;;;;;48.70;22.00;;;;;;;12.29;100.00;100540.28;5089826;28;20122;-75
2022/10/15 06:22:14;;;;;;;47.35;20.95;;;;;;;12.33;100.00;100538.16;5098827;28;20107;-75
2022/10/15 06:24:40;;;;;;;47.30;20.65;;;;;;;12.33;100.00;100536.28;5108714;28;20493;-75
2022/10/15 06:27:06;;;;;;;46.05;20.27;;;;;;;12.35;100.00;100549.78;5101404;28;20431;-75
2022/10/15 06:29:31;;;;;;;46.70;20.30;;;;;;;12.36;100.00;100543.38;5098559;28;20035;-76
2022/10/15 06:32:00;;;;;;;42.75;20.60;;;;;;;12.37;100.00;100545.97;5095621;28;20047;-75
2022/10/15 06:34:28;;;;;;;41.40;20.35;;;;;;;12.40;100.00;100542.97;5093239;28;20119;-76
2022/10/15 06:36:53;;;;;;;40.35;19.92;;;;;;;12.40;100.00;100542.09;5096827;28;20119;-76
2022/10/15 06:39:18;;;;;;;43.63;22.65;;;;;;;12.41;100.00;100546.56;5091791;28;20081;-76
2022/10/15 06:41:44;;;;;;;44.85;21.40;;;;;;;12.44;100.00;100536.22;5098683;28;20040;-75
2022/10/15 06:44:09;;;;;;;45.17;20.98;;;;;;;12.44;100.00;100533.50;5103367;28;20085;-75
2022/10/15 06:46:36;;;;;;;49.33;22.63;;;;;;;12.46;100.00;100538.84;5089616;28;20020;-75
2022/10/15 06:49:01;;;;;;;48.40;22.90;;;;;;;12.47;100.00;100540.59;5093406;28;20023;-76
2022/10/15 06:51:27;;;;;;;48.70;22.63;;;;;;;12.45;100.00;100526.19;5105325;28;20028;-75
2022/10/15 06:53:52;;;;;;;49.33;24.15;;;;;;;12.47;100.00;100546.03;5108558;28;20035;-75
2022/10/15 06:56:17;;;;;;;52.22;23.70;;;;;;;12.45;100.00;100540.72;5102025;28;20039;-75
2022/10/15 06:58:43;;;;;;;54.03;25.42;;;;;;;12.44;100.00;100536.22;5098989;28;20047;-75
2022/10/15 07:01:09;;;;;;;51.08;25.23;;;;;;;12.47;100.00;100546.91;5087820;28;20562;-75
2022/10/15 07:03:35;;;;;;;46.55;24.02;;;;;;;12.48;100.00;100543.16;5094319;28;20040;-76
2022/10/15 07:06:06;;;;;;;48.97;24.50;;;;;;;12.51;100.00;100547.50;5089226;28;20356;-75
2022/10/15 07:08:32;;;;;;;47.55;23.42;;;;;;;12.51;100.00;100545.66;5089813;28;20052;-75
2022/10/15 07:11:01;;;;;;;48.28;23.95;;;;;;;12.59;100.00;100542.28;5095182;28;20442;-75
2022/10/15 07:13:29;;;;;;;51.22;23.45;;;;;;;12.68;100.00;100540.59;5093784;28;20076;-75
2022/10/15 07:15:56;;;;;;;47.08;24.08;;;;;;;12.65;100.00;100540.88;5097697;28;20082;-75
2022/10/15 07:18:21;;;;;;;45.83;22.27;;;;;;;12.63;100.00;100553.78;5094322;28;20023;-75
2022/10/15 07:20:47;;;;;;;48.58;21.92;;;;;;;12.64;100.00;100542.75;5087792;28;20043;-76
2022/10/15 07:23:12;;;;;;;45.00;22.65;;;;;;;12.70;100.00;100549.53;5090152;28;20499;-75
2022/10/15 07:25:38;;;;;;;43.20;21.05;;;;;;;12.76;100.00;100546.25;5097253;28;20040;-75
2022/10/15 07:28:04;;;;;;;42.80;21.58;;;;;;;12.81;100.00;100535.81;5089146;28;20451;-75
2022/10/15 07:30:29;;;;;;;44.15;21.48;;;;;;;12.85;100.00;100523.63;5094060;28;20024;-75
2022/10/15 07:32:56;;;;;;;39.80;20.10;;;;;;;12.96;100.00;100511.75;5091619;28;20077;-76
2022/10/15 07:35:21;;;;;;;36.92;19.58;;;;;;;13.11;100.00;100515.03;5098187;28;20024;-76
2022/10/15 07:37:49;;;;;;;34.15;18.27;;;;;;;13.11;100.00;100509.56;5091416;28;20032;-76
2022/10/15 07:40:14;;;;;;;34.80;18.60;;;;;;;13.10;100.00;100510.53;5087595;28;20040;-75
2022/10/15 07:42:40;;;;;;;35.50;17.25;;;;;;;13.06;100.00;100509.09;5083857;28;20458;-75
2022/10/15 07:45:06;;;;;;;33.22;17.60;;;;;;;13.00;100.00;100505.88;5099619;28;20565;-76
2022/10/15 07:47:32;;;;;;;31.75;17.17;;;;;;;12.96;100.00;100511.75;5096495;28;20047;-75
2022/10/15 07:49:57;;;;;;;33.53;17.75;;;;;;;12.94;100.00;100511.03;5096766;28;20475;-76
2022/10/15 07:52:22;;;;;;;32.67;16.80;;;;;;;12.92;100.00;100513.91;5087017;28;20060;-76
2022/10/15 07:54:48;;;;;;;31.45;16.60;;;;;;;12.94;100.00;100502.84;5088893;28;20032;-75
2022/10/15 07:57:16;;;;;;;31.67;16.05;;;;;;;13.02;100.00;100500.31;5109245;28;20498;-75
2022/10/15 07:59:41;;;;;;;32.65;17.75;;;;;;;13.07;100.00;100499.91;5082930;28;20032;-75
2022/10/15 08:02:13;;;;;;;34.40;16.60;;;;;;;13.08;100.00;100494.28;5070196;28;20095;-75
2022/10/15 08:04:39;;;;;;;;;;;;;;;13.17;100.00;100493.47;5071224;28;20515;-75
2022/10/15 08:07:04;;;;;;;29.02;15.30;;;;;;;13.17;100.00;100495.34;5100081;28;19972;-75
2022/10/15 08:09:29;;;;;;;27.45;13.98;;;;;;;13.22;100.00;100499.44;5097410;28;20483;-75
2022/10/15 08:11:55;;;;;;;27.92;14.52;;;;;;;13.26;100.00;100487.22;5092364;28;20372;-75
2022/10/15 08:14:20;;;;;;;27.55;13.75;;;;;;;13.36;100.00;100489.13;5095695;28;20121;-76
2022/10/15 08:16:45;;;;;;;27.25;13.98;;;;;;;13.43;100.00;100483.00;5095139;28;20043;-75
2022/10/15 08:19:11;;;;;;;25.23;13.13;;;;;;;13.52;100.00;100479.44;5099200;28;20467;-75
2022/10/15 08:21:36;;;;;;;24.85;13.50;;;;;;;13.63;100.00;100485.78;5093517;28;20123;-76
2022/10/15 08:24:02;;;;;;;27.40;13.40;;;;;;;13.75;100.00;100488.22;5096334;28;20059;-75
2022/10/15 08:26:36;;;;;;;22.75;11.85;;;;;;;13.86;100.00;100480.94;5093102;28;20089;-76
2022/10/15 08:29:01;;;;;;;21.38;12.05;;;;;;;13.92;100.00;100485.84;5087878;28;20478;-75
2022/10/15 08:31:26;;;;;;;19.65;11.10;;;;;;;13.95;100.00;100491.03;5092114;28;20123;-75
2022/10/15 08:33:52;;;;;;;19.30;10.02;;;;;;;13.96;100.00;100485.41;5090793;28;20471;-75
2022/10/15 08:36:17;;;;;;;21.05;10.15;;;;;;;13.99;100.00;100489.75;5090815;28;20032;-75
2022/10/15 08:38:43;;;;;;;19.67;9.98;;;;;;;14.02;100.00;100476.63;5091741;28;20031;-77
2022/10/15 08:41:33;;;;;;;17.05;9.02;;;;;;;14.07;100.00;100484.41;5093393;28;20047;-76
2022/10/15 08:43:59;;;;;;;18.23;9.45;;;;;;;14.12;100.00;100471.16;5092056;28;20302;-76
2022/10/15 08:46:34;;;;;;;16.98;9.80;;;;;;;14.14;100.00;100469.16;5099079;28;20487;-76
2022/10/15 08:49:01;;;;;;;14.95;8.98;;;;;;;14.20;100.00;100473.19;5107351;28;20035;-75
2022/10/15 08:51:49;;;;;;;14.23;8.95;;;;;;;14.26;100.00;100469.88;5112700;28;20088;-76
2022/10/15 08:54:17;;;;;;;14.32;7.60;;;;;;;14.29;100.00;100466.84;5100152;28;20547;-75
2022/10/15 08:56:47;;;;;;;14.80;8.40;;;;;;;14.29;99.16;100462.25;5073560;28;20654;-76
2022/10/15 08:59:52;;;;;;;13.50;8.43;;;;;;;14.36;100.00;100464.38;5073557;28;20128;-76
2022/10/15 09:02:24;;;;;;;19.70;8.85;;;;;;;14.36;99.33;100453.44;5089730;28;20502;-77
2022/10/15 09:04:58;;;;;;;16.63;8.63;;;;;;;14.40;99.26;100452.16;5099143;28;20042;-76
2022/10/15 09:07:38;;;;;;;11.50;6.80;;;;;;;14.41;99.13;100440.19;5085846;28;20475;-75
2022/10/15 09:10:31;;;;;;;12.55;7.68;;;;;;;14.48;98.87;100444.97;5091711;28;20399;-75
2022/10/15 09:13:01;;;;;;;13.02;7.05;;;;;;;14.53;100.00;100436.31;5091741;28;20461;-75
2022/10/15 09:15:31;;;;;;;12.13;7.22;;;;;;;14.62;100.00;100429.09;5091878;28;20032;-76
2022/10/15 09:17:57;;;;;;;11.60;6.57;;;;;;;14.67;99.56;100438.59;5090422;28;20480;-75
2022/10/15 09:20:30;;;;;;;13.25;6.95;;;;;;;14.69;99.63;100436.59;5091605;28;20541;-75
2022/10/15 09:22:56;;;;;;;10.30;6.60;;;;;;;14.67;98.16;100440.47;5090070;28;20075;-75
2022/10/15 09:25:23;;;;;;;11.18;6.47;;;;;;;14.63;98.86;100431.69;5090162;28;20040;-76
2022/10/15 09:27:50;;;;;;;10.55;6.55;;;;;;;14.68;99.24;100439.47;5095793;28;20032;-75
2022/10/15 09:30:26;;;;;;;8.18;5.40;;;;;;;14.70;98.98;100437.44;5094387;28;20116;-75
2022/10/15 09:33:19;;;;;;;10.43;5.82;;;;;;;14.70;98.85;100434.72;5096624;28;20036;-75
2022/10/15 09:35:48;;;;;;;8.45;5.10;;;;;;;14.72;98.81;100433.53;5100698;28;20127;-75
2022/10/15 09:38:31;;;;;;;11.73;5.80;;;;;;;14.70;98.44;100424.63;5080694;28;20024;-75
2022/10/15 09:40:56;;;;;;;8.57;5.65;;;;;;;14.69;98.61;100424.78;5100826;28;20753;-76
2022/10/15 09:43:29;;;;;;;8.90;5.63;;;;;;;14.70;99.26;100423.75;5099677;28;20036;-75
2022/10/15 09:45:56;;;;;;;9.40;5.28;;;;;;;14.72;99.47;100418.97;5099794;28;20027;-77
2022/10/15 09:48:30;;;;;;;11.93;5.80;;;;;;;14.77;100.00;100425.75;5099524;28;20031;-78
2022/10/15 09:51:01;;;;;;;9.55;5.30;;;;;;;14.75;99.85;100424.19;5098967;28;20035;-77
2022/10/15 09:53:51;;;;;;;11.55;5.55;;;;;;;14.72;100.00;100425.31;5099816;28;20038;-77
2022/10/15 09:56:23;;;;;;;8.65;5.32;;;;;;;14.67;100.00;100419.44;5097442;28;20036;-76
2022/10/15 09:58:52;;;;;;;8.55;5.00;;;;;;;14.63;100.00;100415.25;5095601;28;20039;-76
2022/10/15 10:01:26;;;;;;;11.55;5.80;;;;;;;14.63;100.00;100403.44;5091292;28;20080;-76
2022/10/15 10:04:07;;;;;;;8.98;5.25;;;;;;;14.66;100.00;100405.91;5089980;28;20084;-76
2022/10/15 10:06:42;;;;;;;12.73;5.85;;;;;;;14.71;100.00;100409.06;5089016;28;20032;-75
2022/10/15 10:09:16;;;;;;;11.15;5.85;;;;;;;14.73;100.00;100404.28;5095048;28;20052;-76
2022/10/15 10:11:50;;;;;;;9.30;5.18;;;;;;;14.75;100.00;100399.53;5094358;28;20027;-77
2022/10/15 10:14:26;;;;;;;7.85;4.60;;;;;;;14.81;100.00;100407.13;5091903;28;20036;-76
2022/10/15 10:17:07;;;;;;;6.65;4.97;;;;;;;14.88;100.00;100408.28;5090432;28;20085;-77
2022/10/15 10:19:32;;;;;;;9.13;4.82;;;;;;;14.94;100.00;100396.72;5090368;28;20048;-76
2022/10/15 10:22:14;;;;;;;7.60;5.30;;;;;;;15.04;100.00;100404.91;5090579;28;20463;-76
2022/10/15 10:24:39;;;;;;;8.63;5.03;;;;;;;15.07;100.00;100407.34;5111517;27;20068;-76
2022/10/15 10:27:19;;;;;;;8.80;4.47;;;;;;;15.09;100.00;100408.03;5098665;28;20092;-76
2022/10/15 10:30:01;;;;;;;5.82;4.03;;;;;;;15.10;100.00;100396.06;5097948;28;20554;-75
2022/10/15 10:32:34;;;;;;;9.07;3.67;;;;;;;15.15;100.00;100401.94;5093832;28;20483;-75
2022/10/15 10:35:02;;;;;;;5.50;3.65;;;;;;;15.18;100.00;100400.78;5096447;28;20031;-76
2022/10/15 10:37:28;;;;;;;5.70;3.72;;;;;;;15.19;100.00;100400.63;5090723;28;20080;-75
2022/10/15 10:39:59;;;;;;;5.22;3.85;;;;;;;15.18;100.00;100398.91;5094012;28;20027;-76
2022/10/15 10:42:33;;;;;;;3.30;2.63;;;;;;;15.16;100.00;100403.69;5089407;28;20110;-76
2022/10/15 10:45:21;;;;;;;4.05;2.80;;;;;;;15.18;100.00;100409.88;5076688;28;20115;-76
2022/10/15 10:47:46;;;;;;;3.65;2.50;;;;;;;15.19;100.00;100418.94;5089803;28;20386;-75
2022/10/15 10:50:33;;;;;;;3.90;2.83;;;;;;;15.22;100.00;100407.69;5103194;28;20035;-75
2022/10/15 10:53:19;;;;;;;3.63;2.33;;;;;;;15.23;100.00;100404.81;5097200;28;21393;-75
2022/10/15 10:55:44;;;;;;;3.22;2.75;;;;;;;15.23;100.00;100403.94;5090601;28;20068;-75
2022/10/15 10:58:18;;;;;;;2.75;2.30;;;;;;;15.25;100.00;100397.31;5095771;28;20024;-75
2022/10/15 11:00:46;;;;;;;2.90;2.60;;;;;;;15.26;100.00;100399.03;5094355;28;20031;-75
2022/10/15 11:03:41;;;;;;;4.25;2.63;;;;;;;15.32;100.00;100389.31;5096382;28;20349;-75
2022/10/15 11:06:13;;;;;;;5.00;3.42;;;;;;;15.36;100.00;100389.88;5082583;28;20055;-75
2022/10/15 11:08:47;;;;;;;3.20;2.90;;;;;;;15.40;100.00;100381.19;5098363;28;20063;-74
2022/10/15 11:11:15;;;;;;;3.28;2.92;;;;;;;15.44;100.00;100385.38;5099243;28;20031;-75
2022/10/15 11:13:56;;;;;;;3.40;3.08;;;;;;;15.53;100.00;100383.59;5097841;27;20032;-76
2022/10/15 11:16:49;;;;;;;4.93;3.38;;;;;;;15.62;100.00;100390.88;5093308;28;20527;-75